Angel Fire, NM (87710)

1:53 AM MST on February 21, 2018 (GMT -0700)
NW face of Angel Fire Ski Mountain | | Change Station

Elev 8907 ft 36.39 °N, 105.26 °W | Updated 6 minutes ago

Light Snow
Light Snow
15.6 °F
Feels Like 16 °F
N
2.0
Wind Variable Wind from ESE
Gusts 3.0 mph

Today
High -- | Low -- °F
--% Chance of Precip.
Yesterday
High -- | Low -- °F
Precip. -- in
Pressure 30.07 in
Visibility 10.0 miles
Clouds Overcast 5000 ft
Windchill 16 °F
Dew Point 11 °F
Humidity 83%
Rainfall 0.00 in
Snow Depth Not available.
6:41 AM 5:48 PM
Waxing Crescent, 29% visible
METAR KAXX 210835Z AUTO 13003KT 10SM -SN OVC050 M08/M11 A3007 RMK AO2 T10821112
Pressure 30.07 in
Visibility 10.0 miles
Clouds Overcast 5000 ft
Windchill 16 °F
Dew Point 11 °F
Humidity 83%
Rainfall 0.00 in
Snow Depth Not available.
6:41 AM 5:48 PM
Waxing Crescent, 29% visible
METAR KAXX 210835Z AUTO 13003KT 10SM -SN OVC050 M08/M11 A3007 RMK AO2 T10821112

Get Severe Weather Alerts

Thanks for signing up!

Be on the lookout for a verification email in your inbox.

You'll start receiving the daily forecast at 6 AM.

×

10-Day Weather Forecast

Almanac

Astronomy

Feb. 21, 2018 Rise Set
Actual Time
Civil Twilight
Nautical Twilight
Astronomical Twilight
Moon
Length of Visible Light
Length of Day
Tomorrow will be .
, % of the Moon is Illuminated

Today's Extremes

State Highs State Lows

Community

WunderPhotos

Category 6

Welcome to Category 6. This is the collective home for Weather Underground's featured writeups by Dr. Jeff Masters (right), Bob Henson (left), Chris Burt, and other regular contributors.

Nearby

Air Quality

  Air Quality AQ Index Pollutant
Not available.

Snow Depth

Station Depth Elevation

Earthquake Activity

City Distance Mag. Time & Date
Minimum magnitude displayed is 2.5.

Coastal Water Temperatures

Place Temperature

Stations

Nearby Weather Stations

Station Location Temp. Windchill Dew Point Humidity Wind Precip. Elev Updated Type
                   

Watches & Warnings

There are currently no watches in effect.